Time;durP1;ratioP1;P1;durP2;ratioP2;P2;SDS_P1;SDS_P2;PMS_P1;PMS_P2;Temp;Humidity;BMP_temperature;BMP_pressure;BME280_temperature;BME280_humidity;BME280_pressure;Samples;Min_cycle;Max_cycle;Signal;HPM_P1;HPM_P2
2022/06/15 00:01:42;;;;;;;1999.90;999.90;;;21.90;84.00;;;;;;4973256;28;20019;-83
2022/06/15 00:04:08;;;;;;;1999.90;999.90;;;21.90;84.70;;;;;;4955177;29;20027;-78
2022/06/15 00:06:38;;;;;;;1999.90;999.90;;;21.90;84.70;;;;;;4954336;29;20037;-83
2022/06/15 00:09:04;;;;;;;1999.90;999.90;;;21.80;84.70;;;;;;4955287;29;20058;-78
2022/06/15 00:11:35;;;;;;;1999.90;999.90;;;21.80;84.90;;;;;;4936921;29;20066;-77
2022/06/15 00:14:09;;;;;;;1999.90;999.90;;;21.70;85.10;;;;;;4937924;29;20027;-82
2022/06/15 00:16:34;;;;;;;1999.90;999.90;;;21.70;84.80;;;;;;4954868;29;20102;-79
2022/06/15 00:19:02;;;;;;;1999.90;999.90;;;21.70;85.50;;;;;;4947220;29;20471;-78
2022/06/15 00:21:28;;;;;;;1999.90;999.90;;;21.60;85.00;;;;;;4967836;28;20030;-77
2022/06/15 00:23:53;;;;;;;1999.90;999.90;;;21.50;85.20;;;;;;4976559;28;20026;-78
2022/06/15 00:26:19;;;;;;;1999.90;999.90;;;21.50;85.70;;;;;;4956967;28;20487;-78
2022/06/15 00:28:45;;;;;;;1999.90;999.90;;;21.50;85.90;;;;;;4972640;28;20037;-78
2022/06/15 00:31:10;;;;;;;1999.90;999.90;;;21.50;86.40;;;;;;4970712;28;20402;-78
2022/06/15 00:33:36;;;;;;;1999.90;999.90;;;21.50;86.10;;;;;;4974161;28;20130;-78
2022/06/15 00:36:06;;;;;;;1999.90;999.90;;;21.50;86.60;;;;;;4973988;28;20360;-83
2022/06/15 00:38:37;;;;;;;1999.90;999.90;;;21.50;85.80;;;;;;4951395;29;20510;-83
2022/06/15 00:41:05;;;;;;;1999.90;999.90;;;21.50;86.70;;;;;;4957670;29;20024;-77
2022/06/15 00:43:44;;;;;;;1999.90;999.90;;;21.50;85.70;;;;;;4954617;29;20395;-83
2022/06/15 00:46:21;;;;;;;1999.90;999.90;;;21.40;86.10;;;;;;4954484;29;20027;-78
2022/06/15 00:48:50;;;;;;;1999.90;999.90;;;21.50;85.30;;;;;;4954790;28;20027;-77
2022/06/15 00:51:17;;;;;;;1999.90;999.90;;;21.50;84.60;;;;;;4954684;29;20027;-78
2022/06/15 00:53:43;;;;;;;1999.90;999.90;;;21.50;85.00;;;;;;4954320;29;20047;-77
2022/06/15 00:56:09;;;;;;;1999.90;999.90;;;21.40;85.40;;;;;;4949472;29;20039;-83
2022/06/15 00:58:38;;;;;;;1999.90;999.90;;;21.40;86.10;;;;;;4937270;29;20487;-78
2022/06/15 01:01:06;;;;;;;1999.90;999.90;;;21.30;85.90;;;;;;4957812;28;20026;-83
2022/06/15 01:03:32;;;;;;;1999.90;999.90;;;21.30;85.90;;;;;;4939991;29;20023;-83
2022/06/15 01:06:00;;;;;;;1999.90;999.90;;;21.20;86.10;;;;;;4972319;28;20053;-78
2022/06/15 01:08:53;;;;;;;1999.90;999.90;;;21.20;86.00;;;;;;4975264;28;20046;-83
2022/06/15 01:11:38;;;;;;;1999.90;999.90;;;21.20;86.00;;;;;;4967359;28;20394;-78
2022/06/15 01:14:04;;;;;;;1999.90;999.90;;;21.10;85.90;;;;;;4977381;28;20536;-78
2022/06/15 01:16:39;;;;;;;1999.90;999.90;;;21.10;86.20;;;;;;4974942;28;20030;-83
2022/06/15 01:19:04;;;;;;;1999.90;999.90;;;21.10;86.50;;;;;;4951917;29;20034;-83
2022/06/15 01:21:58;;;;;;;1999.90;999.90;;;21.10;86.50;;;;;;4962430;28;20022;-83
2022/06/15 01:24:42;;;;;;;1999.90;999.90;;;21.10;86.80;;;;;;4977704;28;20031;-80
2022/06/15 01:27:16;;;;;;;1999.90;999.90;;;21.10;87.10;;;;;;4960064;28;20027;-78
2022/06/15 01:30:07;;;;;;;1999.90;999.90;;;21.00;87.30;;;;;;4972079;28;20065;-78
2022/06/15 01:33:00;;;;;;;1999.90;999.90;;;21.00;87.70;;;;;;4977474;28;20026;-83
2022/06/15 01:35:32;;;;;;;1999.90;999.90;;;20.90;87.50;;;;;;4977411;28;20074;-82
2022/06/15 01:38:22;;;;;;;1999.90;999.90;;;20.80;88.00;;;;;;4971769;28;20031;-83
2022/06/15 01:41:01;;;;;;;1999.90;999.90;;;20.80;87.90;;;;;;4956005;29;20482;-77
2022/06/15 01:43:31;;;;;;;1999.90;999.90;;;20.70;88.00;;;;;;4957641;29;20027;-83
2022/06/15 01:45:59;;;;;;;1999.90;999.90;;;20.70;88.40;;;;;;4957714;29;20087;-78
2022/06/15 01:48:27;;;;;;;1999.90;999.90;;;20.70;88.60;;;;;;4959890;28;20032;-83
2022/06/15 01:50:57;;;;;;;1999.90;999.90;;;20.70;88.90;;;;;;4940339;29;20070;-77
2022/06/15 01:53:29;;;;;;;1999.90;999.90;;;20.60;88.80;;;;;;4957277;29;20047;-83
2022/06/15 01:56:14;;;;;;;1999.90;999.90;;;20.60;88.70;;;;;;4940365;29;20031;-78
2022/06/15 01:58:42;;;;;;;1999.90;999.90;;;20.60;89.00;;;;;;4957461;29;20024;-77
2022/06/15 02:01:17;;;;;;;1999.90;999.90;;;20.50;89.20;;;;;;4957703;29;20434;-78
2022/06/15 02:04:15;;;;;;;1999.90;999.90;;;20.40;90.00;;;;;;4953305;29;20486;-83
2022/06/15 02:06:52;;;;;;;1999.90;999.90;;;20.50;90.00;;;;;;4958750;29;20530;-77
2022/06/15 02:09:32;;;;;;;1999.90;999.90;;;20.40;90.00;;;;;;4956352;29;20038;-77
2022/06/15 02:12:01;;;;;;;1999.90;999.90;;;20.40;90.30;;;;;;4956574;28;20442;-78
2022/06/15 02:14:33;;;;;;;1999.90;999.90;;;20.30;90.40;;;;;;4957340;29;20431;-83
2022/06/15 02:17:03;;;;;;;1999.90;999.90;;;20.30;90.80;;;;;;4957063;29;20086;-78
2022/06/15 02:19:39;;;;;;;1999.90;999.90;;;20.20;90.70;;;;;;4949586;29;20380;-83
2022/06/15 02:22:14;;;;;;;1999.90;999.90;;;20.10;90.70;;;;;;4956925;29;20398;-77
2022/06/15 02:24:42;;;;;;;1999.90;999.90;;;20.20;90.70;;;;;;4957405;29;20538;-77
2022/06/15 02:27:09;;;;;;;1999.90;999.90;;;20.10;90.50;;;;;;4957044;29;20442;-77
2022/06/15 02:29:37;;;;;;;1999.90;999.90;;;20.10;91.10;;;;;;4978730;28;20034;-83
2022/06/15 02:32:08;;;;;;;1999.90;999.90;;;20.10;90.80;;;;;;4982868;28;20035;-83
2022/06/15 02:34:33;;;;;;;1999.90;999.90;;;20.00;90.80;;;;;;4976554;28;20030;-83
2022/06/15 02:36:59;;;;;;;1999.90;999.90;;;20.00;91.00;;;;;;4975880;28;20094;-78
2022/06/15 02:39:25;;;;;;;1999.90;999.90;;;20.00;91.10;;;;;;4949576;28;20035;-83
2022/06/15 02:42:03;;;;;;;1999.90;999.90;;;20.00;91.00;;;;;;4976374;28;20030;-78
2022/06/15 02:44:33;;;;;;;1999.90;999.90;;;20.00;91.00;;;;;;4941976;29;20083;-77
2022/06/15 02:46:59;;;;;;;1999.90;999.90;;;19.90;91.10;;;;;;4957984;28;20055;-83
2022/06/15 02:49:25;;;;;;;1999.90;999.90;;;19.90;91.00;;;;;;4940405;29;20510;-83
2022/06/15 02:52:02;;;;;;;1999.90;999.90;;;19.90;91.20;;;;;;4959123;29;20073;-77
2022/06/15 02:54:40;;;;;;;1999.90;999.90;;;19.90;91.30;;;;;;4956669;29;20402;-83
2022/06/15 02:57:07;;;;;;;1999.90;999.90;;;19.90;91.30;;;;;;4949338;29;20037;-83
2022/06/15 02:59:33;;;;;;;1999.90;999.90;;;19.80;91.40;;;;;;4956287;29;20027;-77
2022/06/15 03:01:59;;;;;;;1999.90;999.90;;;19.90;91.70;;;;;;4955783;29;20114;-76
2022/06/15 03:04:24;;;;;;;1999.90;999.90;;;19.90;91.60;;;;;;4938855;29;20058;-83
2022/06/15 03:06:50;;;;;;;1999.90;999.90;;;19.80;91.60;;;;;;4956153;29;20131;-78
2022/06/15 03:09:16;;;;;;;1999.90;999.90;;;19.80;91.70;;;;;;4938630;29;20102;-80
2022/06/15 03:11:42;;;;;;;1999.90;999.90;;;19.80;91.70;;;;;;4955016;29;20039;-85
2022/06/15 03:14:08;;;;;;;1999.90;999.90;;;19.80;91.70;;;;;;4956495;29;20074;-85
2022/06/15 03:16:34;;;;;;;1999.90;999.90;;;19.80;91.80;;;;;;4955812;29;20110;-79
2022/06/15 03:19:00;;;;;;;1999.90;999.90;;;19.70;92.00;;;;;;4948374;29;20114;-78
2022/06/15 03:21:27;;;;;;;1999.90;999.90;;;19.80;91.90;;;;;;4963217;28;20470;-85
2022/06/15 03:23:53;;;;;;;1999.90;999.90;;;19.70;92.10;;;;;;4974968;28;20015;-79
2022/06/15 03:26:19;;;;;;;1999.90;999.90;;;19.70;92.70;;;;;;4975708;28;20570;-80
2022/06/15 03:28:45;;;;;;;1999.90;999.90;;;19.70;92.70;;;;;;4973855;28;20035;-80
2022/06/15 03:31:11;;;;;;;1999.90;999.90;;;19.70;92.50;;;;;;4971377;28;20030;-80
2022/06/15 03:33:37;;;;;;;1999.90;999.90;;;19.70;92.50;;;;;;4975283;28;20023;-85
2022/06/15 03:36:04;;;;;;;1999.90;999.90;;;19.60;92.60;;;;;;4957607;29;20501;-81
2022/06/15 03:38:31;;;;;;;1999.90;999.90;;;19.60;92.90;;;;;;4955755;29;20398;-80
2022/06/15 03:40:57;;;;;;;1999.90;999.90;;;19.50;92.80;;;;;;4955734;29;20031;-85
2022/06/15 03:43:23;;;;;;;1999.90;999.90;;;19.50;92.90;;;;;;4945226;29;20129;-79
2022/06/15 03:45:48;;;;;;;1999.90;999.90;;;19.50;93.40;;;;;;4938203;29;20062;-80
2022/06/15 03:48:15;;;;;;;1999.90;999.90;;;19.50;93.20;;;;;;4957083;28;20051;-79
2022/06/15 03:50:41;;;;;;;1999.90;999.90;;;19.40;93.30;;;;;;4937954;29;20037;-80
2022/06/15 03:53:08;;;;;;;1999.90;999.90;;;19.30;93.50;;;;;;4956341;29;20418;-85
2022/06/15 03:55:35;;;;;;;1999.90;999.90;;;19.30;93.50;;;;;;4949005;29;20048;-85
2022/06/15 03:58:01;;;;;;;1999.90;999.90;;;19.30;93.70;;;;;;4950348;29;20019;-80
2022/06/15 04:00:29;;;;;;;1999.90;999.90;;;19.20;94.00;;;;;;4955426;29;20031;-80
2022/06/15 04:02:55;;;;;;;1999.90;999.90;;;19.20;94.20;;;;;;4955316;29;20046;-86
2022/06/15 04:05:30;;;;;;;1999.90;999.90;;;19.20;94.20;;;;;;4955191;29;20090;-80
2022/06/15 04:10:39;;;;;;;1999.90;999.90;;;19.10;94.40;;;;;;4959030;28;20114;-85
2022/06/15 04:13:05;;;;;;;1999.90;999.90;;;19.10;94.70;;;;;;4973994;28;20054;-80
2022/06/15 04:15:31;;;;;;;1999.90;999.90;;;19.00;94.80;;;;;;4954146;29;20066;-80
2022/06/15 04:17:57;;;;;;;1999.90;999.90;;;19.00;94.70;;;;;;4965213;29;20118;-79
2022/06/15 04:20:40;;;;;;;1999.90;999.90;;;19.00;94.90;;;;;;4955249;29;20553;-80
2022/06/15 04:23:17;;;;;;;1999.90;999.90;;;18.90;95.10;;;;;;4937694;29;20042;-79
2022/06/15 04:25:51;;;;;;;1999.90;999.90;;;18.90;95.20;;;;;;4954852;29;20060;-85
2022/06/15 04:28:18;;;;;;;1999.90;999.90;;;18.90;95.40;;;;;;4954943;29;20027;-80
2022/06/15 04:30:44;;;;;;;1999.90;999.90;;;18.90;95.30;;;;;;4967945;28;20537;-81
2022/06/15 04:33:09;;;;;;;1999.90;999.90;;;18.90;95.40;;;;;;4956618;28;20114;-80
2022/06/15 04:35:36;;;;;;;1999.90;999.90;;;18.90;95.50;;;;;;4973553;28;20031;-79
2022/06/15 04:38:06;;;;;;;1999.90;999.90;;;18.90;95.70;;;;;;4955222;29;20020;-79
2022/06/15 04:40:33;;;;;;;1999.90;999.90;;;18.80;95.90;;;;;;4965020;28;20082;-85
2022/06/15 04:42:59;;;;;;;1999.90;999.90;;;18.80;96.20;;;;;;4937630;29;20170;-86
2022/06/15 04:45:25;;;;;;;1999.90;999.90;;;18.80;96.20;;;;;;4954485;29;20063;-80
2022/06/15 04:47:50;;;;;;;1999.90;999.90;;;18.80;96.20;;;;;;4944098;29;20105;-79
2022/06/15 04:50:17;;;;;;;1999.90;999.90;;;18.80;96.40;;;;;;4968688;28;20138;-79
2022/06/15 04:52:45;;;;;;;1999.90;999.90;;;18.80;96.60;;;;;;4971784;28;20078;-86
2022/06/15 04:55:14;;;;;;;1999.90;999.90;;;18.80;96.50;;;;;;4937140;29;20046;-80
2022/06/15 04:57:40;;;;;;;1999.90;999.90;;;18.80;96.60;;;;;;4954129;29;20043;-86
2022/06/15 05:00:11;;;;;;;1999.90;999.90;;;18.80;96.80;;;;;;4932603;29;20463;-86
2022/06/15 05:02:37;;;;;;;1999.90;999.90;;;18.90;96.60;;;;;;4954128;29;20026;-85
2022/06/15 05:05:04;;;;;;;1999.90;999.90;;;18.90;96.50;;;;;;4952823;29;20402;-86
2022/06/15 05:07:29;;;;;;;1999.90;999.90;;;19.00;96.50;;;;;;4953841;29;20023;-80
2022/06/15 05:09:56;;;;;;;1999.90;999.90;;;19.00;96.60;;;;;;4954179;28;20027;-86
2022/06/15 05:12:22;;;;;;;1999.90;999.90;;;19.00;96.90;;;;;;4956079;28;20090;-80
2022/06/15 05:14:48;;;;;;;1999.90;999.90;;;19.10;96.60;;;;;;4956147;28;20038;-80
2022/06/15 05:17:19;;;;;;;1999.90;999.90;;;19.10;96.40;;;;;;4972928;28;20030;-86
2022/06/15 05:19:45;;;;;;;1999.90;999.90;;;19.20;96.40;;;;;;4961438;28;20031;-86
2022/06/15 05:22:11;;;;;;;1999.90;999.90;;;19.30;96.30;;;;;;4973235;28;20031;-80
2022/06/15 05:24:37;;;;;;;1999.90;999.90;;;19.40;96.40;;;;;;4958134;28;20562;-80
2022/06/15 05:27:03;;;;;;;1999.90;999.90;;;19.40;96.30;;;;;;4953999;29;20098;-80
2022/06/15 05:29:29;;;;;;;1999.90;999.90;;;19.50;96.20;;;;;;4953951;29;20066;-86
2022/06/15 05:31:55;;;;;;;1999.90;999.90;;;19.60;96.30;;;;;;4936501;29;20077;-81
2022/06/15 05:34:21;;;;;;;1999.90;999.90;;;19.70;95.40;;;;;;4952413;28;20085;-80
2022/06/15 05:36:47;;;;;;;1999.90;999.90;;;19.90;95.60;;;;;;4963658;28;20026;-80
2022/06/15 05:39:13;;;;;;;1999.90;999.90;;;19.90;95.40;;;;;;4956309;28;20070;-79
2022/06/15 05:41:39;;;;;;;1999.90;999.90;;;20.00;95.10;;;;;;4921338;29;20035;-87
2022/06/15 05:46:33;;;;;;;1999.90;999.90;;;20.10;94.90;;;;;;4952740;28;20451;-82
2022/06/15 05:49:01;;;;;;;1999.90;999.90;;;20.20;95.20;;;;;;4955923;29;20033;-89
2022/06/15 05:51:27;;;;;;;1999.90;999.90;;;20.30;94.70;;;;;;4948715;29;20027;-88
2022/06/15 05:53:53;;;;;;;1999.90;999.90;;;20.30;94.70;;;;;;4953793;29;20407;-79
2022/06/15 05:56:20;;;;;;;1999.90;999.90;;;20.40;94.70;;;;;;4951718;29;20036;-85
2022/06/15 05:58:45;;;;;;;1999.90;999.90;;;20.50;94.60;;;;;;4957026;29;20140;-83
2022/06/15 06:01:24;;;;;;;1999.90;999.90;;;20.50;94.50;;;;;;4956061;29;20027;-82
2022/06/15 06:03:49;;;;;;;1999.90;999.90;;;20.60;94.30;;;;;;4956106;29;20023;-77
2022/06/15 06:06:15;;;;;;;1999.90;999.90;;;20.70;94.40;;;;;;4953356;29;20186;-77
2022/06/15 06:08:40;;;;;;;1999.90;999.90;;;20.80;94.40;;;;;;4954428;29;20033;-83
2022/06/15 06:11:06;;;;;;;1999.90;999.90;;;20.90;94.10;;;;;;4950789;29;20035;-82
2022/06/15 06:13:32;;;;;;;1999.90;999.90;;;21.00;93.90;;;;;;4955152;29;20054;-84
2022/06/15 06:15:57;;;;;;;1999.90;999.90;;;21.10;94.20;;;;;;4947825;29;20043;-77
2022/06/15 06:18:24;;;;;;;1999.90;999.90;;;21.20;93.90;;;;;;4947936;28;20028;-82
2022/06/15 06:20:51;;;;;;;1999.90;999.90;;;21.20;93.70;;;;;;4965326;28;20023;-84
2022/06/15 06:23:16;;;;;;;1999.90;999.90;;;21.30;93.60;;;;;;4949586;28;20135;-84
2022/06/15 06:25:43;;;;;;;1999.90;999.90;;;21.40;93.50;;;;;;4947105;29;20118;-77
2022/06/15 06:28:25;;;;;;;1999.90;999.90;;;21.50;93.60;;;;;;4946514;28;20036;-77
2022/06/15 06:30:51;;;;;;;1999.90;999.90;;;21.60;93.40;;;;;;4925369;29;20179;-77
2022/06/15 06:33:17;;;;;;;1999.90;999.90;;;21.80;93.40;;;;;;4942406;29;20403;-77
2022/06/15 06:35:43;;;;;;;1999.90;999.90;;;21.90;93.30;;;;;;4950267;29;20042;-83
2022/06/15 06:38:10;;;;;;;1999.90;999.90;;;22.00;93.30;;;;;;4942277;29;20517;-82
2022/06/15 06:40:36;;;;;;;1999.90;999.90;;;22.10;93.40;;;;;;4951706;29;20059;-84
2022/06/15 06:43:02;;;;;;;1999.90;999.90;;;22.20;93.20;;;;;;4951188;29;20050;-83
2022/06/15 06:45:28;;;;;;;1999.90;999.90;;;22.30;92.70;;;;;;4942608;29;20034;-82
2022/06/15 06:47:53;;;;;;;1999.90;999.90;;;22.40;92.80;;;;;;4943623;29;20031;-77
2022/06/15 06:50:19;;;;;;;1999.90;999.90;;;22.50;92.70;;;;;;4945807;28;20031;-83
2022/06/15 06:52:45;;;;;;;1999.90;999.90;;;22.60;92.60;;;;;;4945970;28;20079;-78
2022/06/15 06:55:11;;;;;;;1999.90;999.90;;;22.70;91.40;;;;;;4951962;28;20397;-79
2022/06/15 06:57:36;;;;;;;1999.90;999.90;;;22.80;91.20;;;;;;4948236;28;20070;-77
2022/06/15 07:00:02;;;;;;;1999.90;999.90;;;22.90;91.40;;;;;;4945905;29;20035;-83
2022/06/15 07:02:28;;;;;;;1999.90;999.90;;;23.00;91.00;;;;;;4941764;29;20098;-81
2022/06/15 07:04:54;;;;;;;1999.90;999.90;;;23.20;91.00;;;;;;4943363;29;20111;-83
2022/06/15 07:07:19;;;;;;;1999.90;999.90;;;23.40;91.00;;;;;;4953390;28;20031;-83
2022/06/15 07:09:45;;;;;;;1999.90;999.90;;;23.50;91.00;;;;;;4919677;29;20032;-77
2022/06/15 07:12:11;;;;;;;1999.90;999.90;;;23.60;90.90;;;;;;4918401;29;20383;-82
2022/06/15 07:14:36;;;;;;;1999.90;999.90;;;23.80;90.80;;;;;;4942361;28;20031;-82
2022/06/15 07:17:02;;;;;;;1999.90;999.90;;;23.90;90.60;;;;;;4955071;28;20086;-82
2022/06/15 07:19:28;;;;;;;1999.90;999.90;;;24.10;90.20;;;;;;4939025;28;20099;-80
2022/06/15 07:21:54;;;;;;;1999.90;999.90;;;24.30;90.60;;;;;;4945277;28;20035;-83
2022/06/15 07:24:19;;;;;;;1999.90;999.90;;;24.40;90.10;;;;;;4948446;28;20352;-76
2022/06/15 07:26:47;;;;;;;1999.90;999.90;;;24.70;89.90;;;;;;4945853;29;20047;-82
2022/06/15 07:29:16;;;;;;;1999.90;999.90;;;25.00;87.70;;;;;;4943810;28;20050;-82
2022/06/15 07:31:45;;;;;;;1999.90;999.90;;;25.70;86.50;;;;;;4925515;29;20031;-81
2022/06/15 07:34:11;;;;;;;1999.90;999.90;;;27.60;83.20;;;;;;4948093;28;20114;-77
2022/06/15 07:36:39;;;;;;;1999.90;999.90;;;29.40;80.20;;;;;;4946470;29;20118;-84
2022/06/15 07:39:06;;;;;;;1999.90;999.90;;;30.80;78.50;;;;;;4940164;29;20031;-81
2022/06/15 07:41:33;;;;;;;1999.90;999.90;;;31.40;76.10;;;;;;4934232;28;20054;-83
2022/06/15 07:43:58;;;;;;;1999.90;999.90;;;31.80;76.20;;;;;;4929655;29;20164;-78
2022/06/15 07:46:25;;;;;;;1999.90;999.90;;;32.40;75.40;;;;;;4941282;29;20058;-78
2022/06/15 07:51:43;;;;;;;1999.90;999.90;;;32.00;74.70;;;;;;4946270;29;20094;-82
2022/06/15 07:54:11;;;;;;;1999.90;999.90;;;32.50;75.60;;;;;;4948106;29;20027;-83
2022/06/15 07:56:40;;;;;;;1999.90;999.90;;;33.00;74.30;;;;;;4945160;29;20042;-78
2022/06/15 07:59:06;;;;;;;1999.90;999.90;;;33.80;74.20;;;;;;4946100;29;20045;-78
2022/06/15 08:01:32;;;;;;;1999.90;999.90;;;33.70;73.10;;;;;;4950395;28;20352;-83
2022/06/15 08:03:58;;;;;;;1999.90;999.90;;;33.90;72.80;;;;;;4949867;28;20533;-78
2022/06/15 08:06:24;;;;;;;1999.90;999.90;;;33.00;73.00;;;;;;4949543;29;20055;-82
2022/06/15 08:08:50;;;;;;;1999.90;999.90;;;33.60;73.10;;;;;;4947661;29;20118;-78
2022/06/15 08:11:17;;;;;;;1999.90;999.90;;;33.60;72.90;;;;;;4932759;28;20118;-78
2022/06/15 08:13:43;;;;;;;1999.90;999.90;;;33.50;73.20;;;;;;4949518;29;20042;-78
2022/06/15 08:16:09;;;;;;;1999.90;999.90;;;33.50;72.60;;;;;;4947450;29;20038;-80
2022/06/15 08:18:40;;;;;;;1999.90;999.90;;;33.60;72.30;;;;;;4946515;28;20040;-79
2022/06/15 08:21:13;;;;;;;1999.90;999.90;;;34.80;72.30;;;;;;4938941;28;20043;-78
2022/06/15 08:23:44;;;;;;;1999.90;999.90;;;36.30;70.90;;;;;;4922512;29;20427;-79
2022/06/15 08:26:16;;;;;;;1999.90;999.90;;;35.80;70.20;;;;;;4947700;28;20023;-79
2022/06/15 08:28:44;;;;;;;1999.90;999.90;;;36.00;69.30;;;;;;4937952;29;20043;-78
2022/06/15 08:31:11;;;;;;;1999.90;999.90;;;36.00;68.30;;;;;;4949544;29;20107;-80
2022/06/15 08:33:37;;;;;;;1999.90;999.90;;;35.50;68.90;;;;;;4945077;29;20360;-80
2022/06/15 08:36:03;;;;;;;1999.90;999.90;;;35.10;68.20;;;;;;4943790;28;20050;-78
2022/06/15 08:38:29;;;;;;;1999.90;999.90;;;35.60;69.00;;;;;;4945054;28;20158;-80
2022/06/15 08:41:01;;;;;;;1999.90;999.90;;;36.50;67.60;;;;;;4947163;28;20105;-78
2022/06/15 08:43:29;;;;;;;1999.90;999.90;;;37.30;67.40;;;;;;4947776;28;20050;-79
2022/06/15 08:46:03;;;;;;;1999.90;999.90;;;37.90;67.10;;;;;;4948332;28;20131;-80
2022/06/15 08:48:44;;;;;;;1999.90;999.90;;;38.00;67.40;;;;;;4946568;29;20031;-80
2022/06/15 08:51:19;;;;;;;;;;;38.00;64.70;;;;;;4947790;29;20031;-80
2022/06/15 08:54:01;;;;;;;1999.90;999.90;;;38.50;63.80;;;;;;4948760;29;19918;-79
2022/06/15 08:56:29;;;;;;;1999.90;999.90;;;38.70;64.50;;;;;;4930294;29;20031;-79
2022/06/15 08:59:13;;;;;;;1999.90;999.90;;;38.90;63.60;;;;;;4951159;29;20074;-80
2022/06/15 09:01:54;;;;;;;1999.90;999.90;;;38.00;64.30;;;;;;4947809;28;20035;-79
2022/06/15 09:04:39;;;;;;;1999.90;999.90;;;38.20;65.40;;;;;;4950813;28;20035;-79
2022/06/15 09:07:10;;;;;;;1999.90;999.90;;;39.00;65.10;;;;;;4945404;29;20102;-79
2022/06/15 09:09:51;;;;;;;;;;;38.60;65.50;;;;;;4943322;29;20067;-79
2022/06/15 09:15:12;;;;;;;1999.90;999.90;;;38.70;65.60;;;;;;4953814;28;20046;-80
2022/06/15 09:17:39;;;;;;;1999.90;999.90;;;37.90;66.20;;;;;;4950021;28;20095;-79
2022/06/15 09:20:16;;;;;;;1999.90;999.90;;;37.30;66.90;;;;;;4946560;29;20106;-79
2022/06/15 09:22:53;;;;;;;1999.90;999.90;;;37.30;66.10;;;;;;4945057;29;20518;-79
2022/06/15 09:25:32;;;;;;;1999.90;999.90;;;37.90;66.30;;;;;;4946451;29;20028;-80
2022/06/15 09:28:03;;;;;;;1999.90;999.90;;;38.80;64.80;;;;;;4955042;28;20098;-80
2022/06/15 09:30:33;;;;;;;1999.90;999.90;;;38.80;65.10;;;;;;4952592;28;20492;-79
2022/06/15 09:33:11;;;;;;;1999.90;999.90;;;37.60;65.60;;;;;;4954012;28;20075;-79
2022/06/15 09:35:52;;;;;;;1999.90;999.90;;;36.70;67.40;;;;;;4955562;28;20063;-78
2022/06/15 09:38:18;;;;;;;1999.90;999.90;;;38.10;64.80;;;;;;4953928;29;20491;-79
2022/06/15 09:40:52;;;;;;;1999.90;999.90;;;38.40;64.30;;;;;;4948097;29;20110;-79
2022/06/15 09:43:55;;;;;;;1999.90;999.90;;;38.00;64.20;;;;;;4951966;29;20758;-80
2022/06/15 09:47:05;;;;;;;1999.90;999.90;;;37.50;63.90;;;;;;4951804;28;20031;-79
2022/06/15 09:49:38;;;;;;;1999.90;999.90;;;37.90;65.00;;;;;;4948820;28;20043;-78
2022/06/15 09:52:45;;;;;;;1999.90;999.90;;;38.40;63.80;;;;;;4949431;28;20444;-80
2022/06/15 09:55:43;;;;;;;1999.90;999.90;;;39.30;63.30;;;;;;4952875;28;20118;-80
2022/06/15 09:58:14;;;;;;;1999.90;999.90;;;39.70;63.10;;;;;;4950535;28;20043;-79
2022/06/15 10:00:41;;;;;;;1999.90;999.90;;;39.10;63.60;;;;;;4949790;28;20138;-79
2022/06/15 10:03:19;;;;;;;1999.90;999.90;;;39.30;63.30;;;;;;4948080;28;20047;-79
2022/06/15 10:05:48;;;;;;;1999.90;999.90;;;39.70;63.30;;;;;;4950556;29;20019;-80
2022/06/15 10:08:15;;;;;;;1999.90;999.90;;;39.30;63.50;;;;;;4953566;29;20030;-79
2022/06/15 10:10:47;;;;;;;1999.90;999.90;;;38.50;63.70;;;;;;4949262;28;20398;-79
2022/06/15 10:13:18;;;;;;;1999.90;999.90;;;37.70;65.10;;;;;;4952130;28;20030;-79
2022/06/15 10:15:44;;;;;;;1999.90;999.90;;;38.00;65.00;;;;;;4954073;28;20490;-79
2022/06/15 10:18:24;;;;;;;1999.90;999.90;;;38.40;64.50;;;;;;4953900;28;20039;-79
2022/06/15 10:21:15;;;;;;;1999.90;999.90;;;38.10;64.60;;;;;;4951085;28;20063;-79
2022/06/15 10:24:21;;;;;;;1999.90;999.90;;;38.30;64.70;;;;;;4944957;28;20031;-79
2022/06/15 10:26:51;;;;;;;1999.90;999.90;;;37.30;64.70;;;;;;4953581;28;20458;-79
2022/06/15 10:29:22;;;;;;;1999.90;999.90;;;36.80;65.10;;;;;;4948629;28;20035;-79
2022/06/15 10:32:00;;;;;;;;;;;37.40;65.10;;;;;;4935485;29;20114;-78
2022/06/15 10:34:42;;;;;;;1999.90;999.90;;;37.60;66.00;;;;;;4951733;28;20301;-79
2022/06/15 10:37:27;;;;;;;1999.90;999.90;;;38.30;64.20;;;;;;4949112;28;20027;-79
2022/06/15 10:39:57;;;;;;;1999.90;999.90;;;38.70;63.80;;;;;;4952056;28;20105;-79
2022/06/15 10:42:36;;;;;;;1999.90;999.90;;;39.10;64.50;;;;;;4951479;28;20162;-77
2022/06/15 10:45:08;;;;;;;1999.90;999.90;;;38.90;64.40;;;;;;4951894;28;20167;-79
2022/06/15 10:47:50;;;;;;;1999.90;999.90;;;38.30;64.60;;;;;;4962427;28;20031;-79
2022/06/15 10:50:26;;;;;;;1999.90;999.90;;;37.90;65.30;;;;;;4954202;28;20093;-78
2022/06/15 10:53:27;;;;;;;1999.90;999.90;;;36.10;66.90;;;;;;4950564;28;20192;-78
2022/06/15 11:02:08;;;;;;;1999.90;999.90;;;36.10;67.80;;;;;;4951961;29;20363;-77
2022/06/15 11:04:44;;;;;;;1999.90;999.90;;;35.70;69.90;;;;;;4938706;29;20404;-78
2022/06/15 11:07:16;;;;;;;1999.90;999.90;;;35.40;70.00;;;;;;4950662;29;20023;-77
2022/06/15 11:10:02;;;;;;;1999.90;999.90;;;35.10;71.50;;;;;;4949462;29;20114;-74
2022/06/15 11:12:31;;;;;;;1999.90;999.90;;;35.60;69.40;;;;;;4950221;28;20031;-79
2022/06/15 11:15:21;;;;;;;1999.90;999.90;;;34.60;71.30;;;;;;4948875;28;20137;-77
2022/06/15 11:18:03;;;;;;;1999.90;999.90;;;35.10;72.20;;;;;;4949075;28;20035;-78
2022/06/15 11:20:37;;;;;;;1999.90;999.90;;;34.80;71.40;;;;;;4951863;28;20035;-77
2022/06/15 11:23:34;;;;;;;1999.90;999.90;;;34.90;72.20;;;;;;4950451;28;20439;-78
2022/06/15 11:26:52;;;;;;;1999.90;999.90;;;34.00;73.30;;;;;;4930005;28;20027;-77
2022/06/15 11:28:55;;;;;;;1999.90;999.90;;;34.30;72.30;;;;;;4954951;28;20043;-78
2022/06/15 11:31:22;;;;;;;1999.90;999.90;;;34.10;72.80;;;;;;4947232;28;20462;-77
2022/06/15 11:33:59;;;;;;;1999.90;999.90;;;34.00;74.00;;;;;;4948343;28;20115;-77
2022/06/15 11:36:34;;;;;;;1999.90;999.90;;;34.30;73.40;;;;;;4947108;29;20041;-77
2022/06/15 11:39:07;;;;;;;1999.90;999.90;;;34.40;73.20;;;;;;4951397;28;20027;-77
2022/06/15 11:41:44;;;;;;;1999.90;999.90;;;33.90;74.00;;;;;;4949120;28;20444;-78
2022/06/15 11:44:22;;;;;;;1999.90;999.90;;;33.60;75.10;;;;;;4948820;28;20106;-77
2022/06/15 11:47:06;;;;;;;1999.90;999.90;;;33.80;74.30;;;;;;4950131;28;20094;-77
2022/06/15 11:49:57;;;;;;;1999.90;999.90;;;33.60;75.60;;;;;;4948164;28;20045;-77
2022/06/15 11:53:00;;;;;;;1999.90;999.90;;;33.40;75.30;;;;;;4952768;28;20429;-77
2022/06/15 11:55:37;;;;;;;;;;;33.20;75.20;;;;;;4948124;29;20094;-78
2022/06/15 11:58:17;;;;;;;1999.90;999.90;;;32.80;75.80;;;;;;4949601;28;19929;-78
2022/06/15 12:01:11;;;;;;;1999.90;999.90;;;32.70;76.30;;;;;;4948961;28;20038;-77
2022/06/15 12:03:55;;;;;;;1999.90;999.90;;;32.20;77.60;;;;;;4927585;28;20070;-77
2022/06/15 12:06:42;;;;;;;1999.90;999.90;;;32.00;77.90;;;;;;4952303;28;20019;-76
2022/06/15 12:09:29;;;;;;;1999.90;999.90;;;31.70;76.60;;;;;;4956947;28;20035;-77
2022/06/15 12:15:12;;;;;;;1999.90;999.90;;;31.10;78.80;;;;;;4952285;28;20517;-82
2022/06/15 12:17:51;;;;;;;1999.90;999.90;;;30.80;79.50;;;;;;4949034;29;20103;-82
2022/06/15 12:20:32;;;;;;;1999.90;999.90;;;30.80;79.60;;;;;;4948515;29;20406;-78
2022/06/15 12:23:24;;;;;;;1999.90;999.90;;;30.30;80.50;;;;;;4948634;28;20110;-79
2022/06/15 12:26:09;;;;;;;1999.90;999.90;;;30.30;82.10;;;;;;4923210;28;20043;-78
2022/06/15 12:29:10;;;;;;;1999.90;999.90;;;30.50;81.60;;;;;;4953645;28;20086;-77
2022/06/15 12:32:20;;;;;;;1999.90;999.90;;;30.60;80.80;;;;;;4950951;28;20035;-77
2022/06/15 12:34:58;;;;;;;1999.90;999.90;;;30.30;81.50;;;;;;4954217;28;20115;-74
2022/06/15 12:37:36;;;;;;;1999.90;999.90;;;31.20;81.00;;;;;;4952105;28;20023;-73
2022/06/15 12:40:07;;;;;;;1999.90;999.90;;;31.40;79.60;;;;;;4949556;29;20090;-78
2022/06/15 12:42:34;;;;;;;1999.90;999.90;;;30.80;81.70;;;;;;4950552;29;20777;-72
2022/06/15 12:45:15;;;;;;;1999.90;999.90;;;30.20;83.70;;;;;;4950958;28;20043;-72